Time;durP1;ratioP1;P1;durP2;ratioP2;P2;SDS_P1;SDS_P2;PMS_P1;PMS_P2;Temp;Humidity;BMP_temperature;BMP_pressure;BME280_temperature;BME280_humidity;BME280_pressure;Samples;Min_cycle;Max_cycle;Signal;HPM_P1;HPM_P2
2023/07/17 00:01:56;;;;;;;7.50;2.00;;;;;;;16.88;83.03;99863.06;108798;1261;61557;-67
2023/07/17 00:04:54;;;;;;;6.60;2.30;;;;;;;16.86;83.24;99862.34;108751;1263;72990;-66
2023/07/17 00:07:51;;;;;;;7.50;2.30;;;;;;;16.83;83.39;99865.30;108503;1262;69884;-65
2023/07/17 00:10:44;;;;;;;7.00;2.40;;;;;;;16.82;83.65;99869.06;108610;1263;72682;-64
2023/07/17 00:13:32;;;;;;;8.10;2.50;;;;;;;16.78;83.88;99868.21;108819;1263;58934;-66
2023/07/17 00:16:20;;;;;;;8.70;2.60;;;;;;;16.74;84.57;99870.05;108391;1262;60223;-66
2023/07/17 00:19:11;;;;;;;8.80;2.50;;;;;;;16.71;84.84;99871.83;108801;1263;73994;-65
2023/07/17 00:22:02;;;;;;;7.70;2.50;;;;;;;16.68;85.48;99872.96;108755;1266;68919;-64
2023/07/17 00:24:52;;;;;;;7.70;2.60;;;;;;;16.67;86.06;99868.09;108579;1267;71275;-65
2023/07/17 00:27:40;;;;;;;8.50;2.70;;;;;;;16.65;86.44;99861.70;108600;1263;262332;-64
2023/07/17 00:30:28;;;;;;;8.40;2.70;;;;;;;16.64;86.59;99859.83;108727;1263;61408;-66
2023/07/17 00:33:18;;;;;;;8.30;2.30;;;;;;;16.62;87.30;99860.12;108855;1262;74044;-67
2023/07/17 00:36:09;;;;;;;7.20;2.60;;;;;;;16.59;87.28;99858.79;108765;1265;67654;-66
2023/07/17 00:38:57;;;;;;;6.80;2.40;;;;;;;16.54;87.61;99858.73;108802;1260;71499;-64
2023/07/17 00:41:49;;;;;;;6.90;2.60;;;;;;;16.49;87.72;99860.30;108725;1269;59345;-63
2023/07/17 00:44:38;;;;;;;8.60;2.40;;;;;;;16.45;88.10;99860.02;108914;1261;60059;-64
2023/07/17 00:47:29;;;;;;;7.80;2.60;;;;;;;16.43;88.60;99860.46;108769;1260;72117;-64
2023/07/17 00:50:21;;;;;;;9.00;2.40;;;;;;;16.40;89.14;99858.64;108782;1260;67951;-64
2023/07/17 00:53:10;;;;;;;8.50;2.40;;;;;;;16.39;89.21;99854.09;108856;1260;73743;-65
2023/07/17 00:56:00;;;;;;;7.60;2.50;;;;;;;16.39;89.60;99855.37;108839;1261;57330;-63
2023/07/17 00:58:56;;;;;;;9.00;2.30;;;;;;;16.36;89.93;99852.24;108873;1260;59700;-65
2023/07/17 01:01:56;;;;;;;8.60;2.40;;;;;;;16.33;89.97;99849.27;108819;1262;75069;-65
2023/07/17 01:04:47;;;;;;;7.10;2.50;;;;;;;16.30;90.31;99855.95;108813;1262;67686;-64
2023/07/17 01:07:37;;;;;;;7.60;2.60;;;;;;;16.26;90.51;99863.48;108743;1260;72725;-62
2023/07/17 01:10:26;;;;;;;8.00;2.50;;;;;;;16.24;91.02;99865.72;108830;1260;58032;-64
2023/07/17 01:13:13;;;;;;;7.10;2.20;;;;;;;16.23;92.57;99869.42;108807;1260;60469;-64
2023/07/17 01:16:04;;;;;;;6.50;2.30;;;;;;;16.24;93.39;99862.44;108883;1260;72826;-63
2023/07/17 01:18:53;;;;;;;7.70;2.20;;;;;;;16.26;93.89;99862.23;108794;1260;67941;-63
2023/07/17 01:21:57;;;;;;;7.80;2.70;;;;;;;16.28;94.44;99862.25;108790;1261;71469;-65
2023/07/17 01:24:48;;;;;;;7.70;2.80;;;;;;;16.29;95.05;99863.33;108782;1263;59344;-64
2023/07/17 01:27:35;;;;;;;6.00;2.00;;;;;;;16.31;95.09;99871.15;108824;1263;58975;-65
2023/07/17 01:30:23;;;;;;;8.00;2.40;;;;;;;16.31;96.01;99870.27;108787;1263;73395;-65
2023/07/17 01:33:11;;;;;;;7.10;2.10;;;;;;;16.31;95.94;99869.55;108832;1262;66859;-64
2023/07/17 01:36:01;;;;;;;7.30;2.40;;;;;;;16.33;96.22;99872.40;108837;1261;73763;-65
2023/07/17 01:38:50;;;;;;;7.80;2.80;;;;;;;16.35;96.17;99871.52;108750;1262;58372;-63
2023/07/17 01:41:38;;;;;;;8.20;2.70;;;;;;;16.37;96.36;99864.83;108844;1264;59579;-65
2023/07/17 01:44:28;;;;;;;6.70;2.30;;;;;;;16.41;97.07;99861.36;108796;1261;72967;-66
2023/07/17 01:47:16;;;;;;;8.70;2.40;;;;;;;16.45;96.63;99858.80;108725;1261;66898;-63
2023/07/17 01:50:05;;;;;;;6.60;2.40;;;;;;;16.43;96.67;99857.58;108807;1263;71449;-65
2023/07/17 01:52:54;;;;;;;10.10;2.60;;;;;;;16.40;96.46;99857.92;108951;1261;59569;-64
2023/07/17 01:55:46;;;;;;;11.10;2.80;;;;;;;16.37;96.09;99858.41;108894;1262;60418;-64
2023/07/17 01:58:36;;;;;;;8.10;2.40;;;;;;;16.36;96.25;99860.36;108938;1263;72942;-65
2023/07/17 02:01:24;;;;;;;6.70;2.20;;;;;;;16.33;96.26;99862.87;108853;1263;68222;-63
2023/07/17 02:04:13;;;;;;;7.50;2.30;;;;;;;16.32;96.44;99856.23;108849;1262;73990;-65
2023/07/17 02:07:00;;;;;;;7.30;2.40;;;;;;;16.31;96.58;99849.16;108765;1267;59190;-65
2023/07/17 02:09:48;;;;;;;7.00;2.60;;;;;;;16.31;96.86;99849.16;108740;1266;60370;-63
2023/07/17 02:12:41;;;;;;;7.60;2.60;;;;;;;16.33;97.14;99849.48;108852;1261;71556;-63
2023/07/17 02:15:29;;;;;;;7.00;2.90;;;;;;;16.37;97.37;99853.35;108822;1263;66468;-66
2023/07/17 02:18:17;;;;;;;6.90;2.80;;;;;;;16.42;96.97;99857.17;108752;1264;71483;-65
2023/07/17 02:21:05;;;;;;;7.90;2.50;;;;;;;16.46;96.99;99857.98;108861;1260;58047;-62
2023/07/17 02:23:53;;;;;;;7.90;2.20;;;;;;;16.49;96.60;99863.06;108818;1260;61110;-65
2023/07/17 02:26:41;;;;;;;6.70;2.30;;;;;;;16.50;96.03;99859.74;108755;1260;72957;-64
2023/07/17 02:29:29;;;;;;;8.00;2.70;;;;;;;16.52;96.12;99853.78;108923;1260;66958;-66
2023/07/17 02:32:17;;;;;;;8.90;2.90;;;;;;;16.55;95.96;99840.45;108876;1260;72420;-68
2023/07/17 02:35:06;;;;;;;8.20;2.80;;;;;;;16.58;95.74;99843.33;108972;1260;60647;-69
2023/07/17 02:37:55;;;;;;;8.40;2.90;;;;;;;16.62;95.57;99843.76;108872;1260;58793;-68
2023/07/17 02:40:43;;;;;;;7.20;2.70;;;;;;;16.65;95.36;99840.18;108767;1260;73976;-65
2023/07/17 02:43:31;;;;;;;8.70;2.70;;;;;;;16.68;95.28;99844.17;108863;1260;69229;-69
2023/07/17 02:46:18;;;;;;;7.90;2.90;;;;;;;16.71;94.76;99842.11;108749;1260;72379;-68
2023/07/17 02:49:11;;;;;;;8.80;2.50;;;;;;;16.73;94.60;99843.56;108934;1260;60843;-67
2023/07/17 02:52:00;;;;;;;7.10;2.60;;;;;;;16.72;94.58;99844.52;108963;1260;60068;-69
2023/07/17 02:54:47;;;;;;;7.10;2.50;;;;;;;16.71;94.88;99846.77;108816;1260;72944;-64
2023/07/17 02:57:36;;;;;;;7.50;2.70;;;;;;;16.71;94.94;99848.19;108871;1260;68374;-65
2023/07/17 03:00:25;;;;;;;7.00;2.90;;;;;;;16.73;94.98;99847.08;108938;1260;72463;-64
2023/07/17 03:03:13;;;;;;;7.60;2.70;;;;;;;16.78;95.11;99839.73;108777;1260;60265;-64
2023/07/17 03:06:04;;;;;;;6.60;2.60;;;;;;;16.85;94.94;99843.98;108821;1260;60374;-64
2023/07/17 03:08:52;;;;;;;7.90;2.60;;;;;;;16.92;94.76;99839.17;108836;1260;73912;-64
2023/07/17 03:11:40;;;;;;;7.90;2.50;;;;;;;17.00;94.20;99841.68;108799;1260;68878;-65
2023/07/17 03:14:29;;;;;;;7.30;2.60;;;;;;;17.07;93.84;99844.91;108717;1260;73657;-62
2023/07/17 03:17:17;;;;;;;7.90;2.70;;;;;;;17.10;93.49;99847.64;108748;1260;57336;-67
2023/07/17 03:20:09;;;;;;;8.70;2.70;;;;;;;17.12;93.16;99850.70;108789;1260;60021;-63
2023/07/17 03:22:57;;;;;;;10.20;3.10;;;;;;;17.12;93.02;99845.86;108822;1260;73844;-62
2023/07/17 03:25:45;;;;;;;9.30;2.90;;;;;;;17.14;92.86;99837.02;108876;1260;66922;-65
2023/07/17 03:28:34;;;;;;;8.70;2.70;;;;;;;17.17;92.84;99841.98;108820;1260;73662;-62
2023/07/17 03:31:22;;;;;;;8.00;2.90;;;;;;;17.23;92.50;99840.98;108840;1260;58313;-65
2023/07/17 03:34:11;;;;;;;10.80;2.70;;;;;;;17.28;92.29;99840.28;108912;1260;59415;-65
2023/07/17 03:37:02;;;;;;;8.10;2.90;;;;;;;17.36;92.02;99844.05;108772;1260;72932;-66
2023/07/17 03:39:51;;;;;;;8.50;2.60;;;;;;;17.41;91.59;99840.64;108822;1260;66978;-64
2023/07/17 03:42:38;;;;;;;7.20;2.80;;;;;;;17.47;91.31;99838.72;108724;1260;72505;-65
2023/07/17 03:45:32;;;;;;;9.10;2.70;;;;;;;17.50;90.67;99840.36;108723;1260;58760;-68
2023/07/17 03:48:20;;;;;;;7.30;2.90;;;;;;;17.50;90.33;99841.95;108844;1260;60488;-65
2023/07/17 03:51:09;;;;;;;8.20;3.00;;;;;;;17.51;90.00;99842.75;108814;1260;72221;-64
2023/07/17 03:53:57;;;;;;;7.30;2.60;;;;;;;17.51;89.75;99841.11;108845;1260;67924;-68
2023/07/17 03:56:46;;;;;;;7.10;2.70;;;;;;;17.50;89.41;99838.83;108788;1260;72862;-63
2023/07/17 03:59:55;;;;;;;7.50;2.70;;;;;;;17.48;89.15;99833.65;108882;1260;57535;-66
2023/07/17 04:02:47;;;;;;;6.60;2.70;;;;;;;17.46;88.90;99833.27;108827;1260;59646;-65
2023/07/17 04:05:41;;;;;;;9.10;2.70;;;;;;;17.45;88.83;99840.41;108854;1260;73081;-66
2023/07/17 04:08:30;;;;;;;8.20;2.70;;;;;;;17.45;88.76;99847.02;108870;1260;67633;-65
2023/07/17 04:11:18;;;;;;;9.10;2.80;;;;;;;17.47;88.64;99841.85;108787;1260;71487;-64
2023/07/17 04:14:11;;;;;;;7.30;2.60;;;;;;;17.47;88.57;99841.98;108809;1260;59562;-66
2023/07/17 04:17:03;;;;;;;7.60;3.00;;;;;;;17.46;88.50;99847.63;108842;1260;60138;-65
2023/07/17 04:20:01;;;;;;;8.40;2.90;;;;;;;17.48;88.32;99846.33;108945;1260;73134;-67
2023/07/17 04:23:00;;;;;;;9.00;2.90;;;;;;;17.53;88.26;99842.11;108842;1260;68671;-64
2023/07/17 04:25:50;;;;;;;9.00;2.80;;;;;;;17.63;88.07;99844.12;108803;1260;72038;-66
2023/07/17 04:28:42;;;;;;;7.90;3.30;;;;;;;17.77;88.03;99846.25;108716;1260;57439;-76
2023/07/17 04:31:33;;;;;;;9.30;3.40;;;;;;;17.94;88.15;99844.64;108871;1260;61075;-73
2023/07/17 04:34:22;;;;;;;9.20;3.10;;;;;;;18.15;88.36;99839.34;108773;1261;73072;-70
2023/07/17 04:37:10;;;;;;;9.80;3.00;;;;;;;18.37;88.19;99836.11;108792;1261;68674;-71
2023/07/17 04:39:59;;;;;;;8.00;3.00;;;;;;;18.59;87.75;99832.48;108691;1260;71494;-70
2023/07/17 04:42:51;;;;;;;7.20;2.90;;;;;;;18.83;86.90;99832.08;108769;1262;57695;-72
2023/07/17 04:45:44;;;;;;;7.70;2.70;;;;;;;19.10;85.92;99833.25;108828;1260;58759;-70
2023/07/17 04:48:37;;;;;;;8.50;2.80;;;;;;;19.42;84.74;99835.79;108798;1260;71530;-67
2023/07/17 04:51:25;;;;;;;7.10;2.70;;;;;;;19.78;82.84;99832.48;108750;1260;66307;-70
2023/07/17 04:54:13;;;;;;;6.50;2.50;;;;;;;20.22;80.93;99828.05;108835;1262;72612;-71
2023/07/17 04:57:05;;;;;;;8.50;2.70;;;;;;;20.77;77.38;99822.95;108803;1262;57460;-69
2023/07/17 04:59:54;;;;;;;9.00;2.70;;;;;;;21.30;75.25;99816.18;108842;1262;58982;-68
2023/07/17 05:02:44;;;;;;;10.00;2.70;;;;;;;21.87;72.96;99811.61;108733;1262;72918;-72
2023/07/17 05:05:33;;;;;;;10.10;2.80;;;;;;;22.42;71.28;99808.55;108621;1262;67895;-71
2023/07/17 05:08:26;;;;;;;9.00;3.00;;;;;;;22.98;69.04;99804.11;108719;1262;73262;-75
2023/07/17 05:11:14;;;;;;;8.40;3.10;;;;;;;23.50;66.69;99800.76;108667;1262;58040;-74
2023/07/17 05:14:06;;;;;;;7.50;2.70;;;;;;;23.91;64.60;99792.80;108822;1261;59219;-71
2023/07/17 05:16:55;;;;;;;8.30;2.60;;;;;;;24.24;63.36;99792.36;108661;1262;73112;-72
2023/07/17 05:19:44;;;;;;;7.20;2.20;;;;;;;24.64;62.40;99789.65;108734;1261;69505;-73
2023/07/17 05:22:32;;;;;;;7.60;2.40;;;;;;;25.07;61.79;99787.70;108783;1262;72421;-69
2023/07/17 05:25:24;;;;;;;7.90;2.20;;;;;;;25.46;59.37;99790.70;108890;1261;58568;-69
2023/07/17 05:28:14;;;;;;;6.60;2.40;;;;;;;25.91;58.61;99789.09;108739;1262;60778;-72
2023/07/17 05:31:04;;;;;;;9.90;2.60;;;;;;;26.32;57.15;99790.99;108744;1261;73018;-69
2023/07/17 05:33:56;;;;;;;7.40;2.80;;;;;;;26.55;56.23;99782.80;108742;1261;67739;-71
2023/07/17 05:36:47;;;;;;;9.20;2.50;;;;;;;26.89;55.68;99783.55;108766;1262;71192;-71
2023/07/17 05:39:35;;;;;;;8.10;2.30;;;;;;;27.33;54.29;99783.22;108497;1265;59050;-69
2023/07/17 05:42:23;;;;;;;8.40;2.40;;;;;;;27.38;53.74;99786.67;108438;1265;58787;-72
2023/07/17 05:45:12;;;;;;;8.90;2.20;;;;;;;27.35;53.25;99781.64;108422;1265;74083;-71
2023/07/17 05:48:00;;;;;;;5.80;2.30;;;;;;;27.40;53.39;99777.59;108613;1265;68218;-70
2023/07/17 05:50:49;;;;;;;6.90;2.50;;;;;;;27.44;52.85;99778.30;108386;1265;73421;-73
2023/07/17 05:53:37;;;;;;;7.50;2.70;;;;;;;27.37;53.09;99773.31;108421;1265;57569;-69
2023/07/17 05:56:26;;;;;;;6.90;2.60;;;;;;;27.29;53.10;99772.73;108549;1266;60815;-67
2023/07/17 05:59:15;;;;;;;7.00;2.30;;;;;;;27.40;53.30;99773.55;108563;1264;72610;-69
2023/07/17 06:02:07;;;;;;;7.60;2.70;;;;;;;27.48;53.35;99772.72;108432;1264;68024;-69
2023/07/17 06:05:00;;;;;;;8.40;2.60;;;;;;;27.81;52.73;99771.38;108611;1265;72879;-70
2023/07/17 06:07:49;;;;;;;6.50;2.60;;;;;;;28.11;51.63;99781.76;108449;1264;58746;-71
2023/07/17 06:10:37;;;;;;;9.10;2.60;;;;;;;28.51;50.55;99778.33;108626;1260;60227;-72
2023/07/17 06:13:25;;;;;;;7.90;2.50;;;;;;;28.92;50.14;99770.54;108858;1260;72712;-72
2023/07/17 06:16:13;;;;;;;8.10;2.70;;;;;;;29.26;48.79;99764.75;108865;1260;66868;-68
2023/07/17 06:19:04;;;;;;;9.10;2.80;;;;;;;29.60;48.00;99775.08;108930;1261;71754;-69
2023/07/17 06:21:54;;;;;;;8.50;2.70;;;;;;;30.15;46.69;99778.61;108811;1262;57746;-71
2023/07/17 06:24:45;;;;;;;8.20;2.60;;;;;;;30.75;44.87;99771.55;108799;1262;59046;-70
2023/07/17 06:27:36;;;;;;;7.20;2.70;;;;;;;31.13;43.66;99768.00;108848;1262;73106;-72
2023/07/17 06:30:27;;;;;;;7.20;2.40;;;;;;;31.24;42.97;99775.54;108826;1262;67752;-74
2023/07/17 06:33:15;;;;;;;6.40;2.20;;;;;;;31.42;42.81;99778.86;108903;1262;72981;-72
2023/07/17 06:36:03;;;;;;;7.30;2.60;;;;;;;31.22;42.42;99776.86;108941;1262;57305;-69
2023/07/17 06:38:51;;;;;;;7.30;2.60;;;;;;;31.35;42.84;99779.05;108851;1263;61394;-77
2023/07/17 06:41:40;;;;;;;8.60;2.50;;;;;;;31.99;41.71;99774.52;109037;1262;71742;-78
2023/07/17 06:44:29;;;;;;;7.70;2.20;;;;;;;33.00;39.84;99764.21;108877;1263;66602;-78
2023/07/17 06:47:26;;;;;;;8.60;2.50;;;;;;;33.64;37.94;99760.78;108959;1261;71217;-80
2023/07/17 06:50:27;;;;;;;6.10;2.30;;;;;;;34.29;37.10;99753.96;108939;1262;57176;-79
2023/07/17 06:53:20;;;;;;;6.90;2.30;;;;;;;34.90;35.69;99745.84;108359;1270;60637;-79
2023/07/17 06:56:11;;;;;;;6.40;2.00;;;;;;;35.74;34.42;99751.17;108575;1269;72268;-79
2023/07/17 06:59:01;;;;;;;6.70;2.50;;;;;;;36.43;33.31;99749.23;108541;1270;67872;-80
2023/07/17 07:01:49;;;;;;;6.10;2.20;;;;;;;36.97;32.00;99744.31;107885;1275;72593;-80
2023/07/17 07:04:37;;;;;;;5.60;2.00;;;;;;;37.47;31.43;99738.16;108047;1275;59091;-77
2023/07/17 07:07:25;;;;;;;8.30;2.00;;;;;;;37.90;30.67;99740.70;107836;1275;60068;-79
2023/07/17 07:10:14;;;;;;;5.80;1.70;;;;;;;38.27;30.11;99740.80;107561;1275;73204;-77
2023/07/17 07:13:03;;;;;;;6.30;2.00;;;;;;;38.65;29.19;99738.77;107769;1276;68033;-79
2023/07/17 07:15:51;;;;;;;6.80;1.90;;;;;;;39.04;28.64;99734.73;107732;1276;73214;-76
2023/07/17 07:18:44;;;;;;;6.90;2.10;;;;;;;39.12;28.10;99729.31;107644;1276;58139;-76
2023/07/17 07:21:37;;;;;;;6.80;2.00;;;;;;;39.15;28.41;99727.30;107690;1275;61082;-82
2023/07/17 07:24:28;;;;;;;6.30;2.00;;;;;;;39.70;27.60;99723.90;108198;1272;72069;-83
2023/07/17 07:27:18;;;;;;;8.40;2.20;;;;;;;39.48;27.08;99722.93;108291;1270;68501;-78
2023/07/17 07:30:08;;;;;;;7.20;2.60;;;;;;;38.02;28.64;99717.05;108397;1270;71460;-78
2023/07/17 07:32:59;;;;;;;8.00;2.20;;;;;;;36.36;30.55;99715.64;108627;1266;57746;-79
2023/07/17 07:35:50;;;;;;;6.90;2.20;;;;;;;34.99;32.44;99712.30;108795;1266;58751;-80
2023/07/17 07:38:38;;;;;;;6.00;2.00;;;;;;;34.42;33.74;99707.34;108720;1267;71847;-80
2023/07/17 07:41:30;;;;;;;8.40;2.50;;;;;;;35.03;33.06;99703.92;108644;1266;67825;-81
2023/07/17 07:44:20;;;;;;;7.30;2.40;;;;;;;35.95;31.74;99704.80;108807;1262;72758;-76
2023/07/17 07:47:08;;;;;;;7.40;2.60;;;;;;;35.87;31.55;99704.54;108931;1262;57325;-78
2023/07/17 07:49:56;;;;;;;7.20;2.20;;;;;;;35.71;31.95;99704.45;108870;1262;58736;-76
2023/07/17 07:52:44;;;;;;;6.40;2.20;;;;;;;36.47;31.08;99702.52;108956;1261;72034;-79
2023/07/17 07:55:32;;;;;;;7.20;2.00;;;;;;;37.22;29.54;99697.00;108974;1262;66431;-78
2023/07/17 07:58:21;;;;;;;6.80;2.10;;;;;;;37.40;28.21;99697.18;108827;1262;72462;-74
2023/07/17 08:01:09;;;;;;;7.10;2.00;;;;;;;38.00;26.69;99698.52;108804;1265;57858;-78
2023/07/17 08:03:59;;;;;;;6.20;1.70;;;;;;;38.29;25.35;99694.38;108918;1260;60225;-78
2023/07/17 08:06:49;;;;;;;6.40;1.90;;;;;;;38.68;24.72;99688.33;108983;1260;72425;-80
2023/07/17 08:09:39;;;;;;;8.80;2.00;;;;;;;39.14;23.48;99691.77;108806;1260;67927;-79
2023/07/17 08:12:32;;;;;;;6.20;1.60;;;;;;;39.70;22.49;99692.04;108990;1260;72573;-80
2023/07/17 08:15:24;;;;;;;5.50;1.70;;;;;;;39.82;21.91;99686.67;108878;1260;57829;-81
2023/07/17 08:18:18;;;;;;;7.00;1.60;;;;;;;40.10;22.07;99684.49;109019;1260;59056;-79
2023/07/17 08:21:09;;;;;;;7.70;1.80;;;;;;;40.27;21.87;99678.84;108839;1260;73376;-81
2023/07/17 08:24:00;;;;;;;7.00;1.50;;;;;;;40.54;21.60;99683.64;108909;1262;67881;-80
2023/07/17 08:26:58;;;;;;;6.70;1.70;;;;;;;40.45;20.72;99682.29;108816;1261;71399;-81
2023/07/17 08:29:51;;;;;;;6.90;1.80;;;;;;;40.89;20.60;99676.23;109006;1261;57972;-79
2023/07/17 08:32:47;;;;;;;6.80;1.50;;;;;;;40.62;20.08;99682.36;108916;1262;60308;-80
2023/07/17 08:35:38;;;;;;;6.60;1.60;;;;;;;39.88;20.69;99677.75;108798;1262;71850;-77
2023/07/17 08:38:27;;;;;;;5.80;1.60;;;;;;;38.67;21.33;99667.66;108927;1261;66650;-81
2023/07/17 08:41:22;;;;;;;5.70;1.50;;;;;;;38.44;21.12;99666.35;108954;1262;71163;-79
2023/07/17 08:44:12;;;;;;;7.10;1.70;;;;;;;37.55;22.64;99662.63;108933;1262;58012;-79
2023/07/17 08:47:07;;;;;;;6.00;2.00;;;;;;;37.23;23.04;99661.94;109002;1262;60603;-82
2023/07/17 08:50:02;;;;;;;6.60;1.80;;;;;;;37.53;22.21;99661.36;108956;1262;73580;-81
2023/07/17 08:52:57;;;;;;;6.10;1.80;;;;;;;37.20;22.48;99660.57;108678;1267;67425;-80
2023/07/17 08:55:51;;;;;;;7.90;2.60;;;;;;;37.51;21.63;99652.91;108695;1267;73014;-80
2023/07/17 08:58:52;;;;;;;10.30;2.70;;;;;;;38.08;20.98;99657.02;108689;1267;56978;-80
2023/07/17 09:01:41;;;;;;;7.10;1.70;;;;;;;38.42;19.64;99649.54;108284;1267;59183;-79
2023/07/17 09:04:36;;;;;;;6.50;1.60;;;;;;;37.96;20.20;99650.90;108638;1267;71912;-78
2023/07/17 09:07:27;;;;;;;12.40;2.10;;;;;;;36.70;20.04;99650.07;108499;1267;66388;-71
2023/07/17 09:10:20;;;;;;;5.80;2.00;;;;;;;35.26;22.19;99653.76;108475;1266;72456;-71
2023/07/17 09:13:09;;;;;;;7.60;2.00;;;;;;;33.43;22.83;99650.66;108393;1267;57959;-71
2023/07/17 09:16:20;;;;;;;7.30;2.10;;;;;;;32.28;24.98;99643.84;108501;1267;58853;-74
2023/07/17 09:19:08;;;;;;;7.70;2.30;;;;;;;31.03;27.03;99645.69;108531;1267;72835;-73
2023/07/17 09:22:04;;;;;;;7.40;1.90;;;;;;;30.34;27.98;99650.25;108545;1267;66447;-71
2023/07/17 09:24:52;;;;;;;7.30;1.80;;;;;;;30.56;28.56;99651.28;108646;1261;72247;-71
2023/07/17 09:27:51;;;;;;;7.70;2.10;;;;;;;29.70;28.11;99645.72;108759;1262;57628;-71
2023/07/17 09:30:41;;;;;;;7.80;2.10;;;;;;;29.59;29.20;99651.70;108829;1262;60063;-72
2023/07/17 09:33:36;;;;;;;7.00;1.90;;;;;;;29.28;29.50;99658.42;108831;1262;73739;-71
2023/07/17 09:36:24;;;;;;;9.10;2.20;;;;;;;29.04;29.55;99660.03;108776;1262;68489;-71
2023/07/17 09:39:13;;;;;;;6.60;2.00;;;;;;;29.06;29.24;99660.67;108758;1262;73866;-74
2023/07/17 09:42:01;;;;;;;7.70;2.60;;;;;;;30.11;28.69;99660.60;108636;1262;57989;-72
2023/07/17 09:44:52;;;;;;;6.30;2.10;;;;;;;31.37;27.87;99655.29;108742;1262;60110;-74
2023/07/17 09:47:41;;;;;;;7.30;2.30;;;;;;;31.90;24.83;99654.83;108786;1261;73772;-73
2023/07/17 09:50:30;;;;;;;7.00;2.10;;;;;;;32.29;25.11;99655.04;108792;1262;66916;-72
2023/07/17 09:53:20;;;;;;;7.50;2.40;;;;;;;33.08;23.91;99651.70;108767;1262;72810;-71
2023/07/17 09:56:13;;;;;;;7.70;2.50;;;;;;;33.81;23.31;99640.89;108659;1262;57423;-74
2023/07/17 09:59:14;;;;;;;8.70;2.20;;;;;;;34.30;21.65;99646.95;108811;1261;58742;-72
2023/07/17 10:02:10;;;;;;;7.30;2.40;;;;;;;34.65;21.57;99641.21;108842;1260;73101;-71
2023/07/17 10:05:00;;;;;;;7.50;2.60;;;;;;;34.23;20.35;99641.30;108808;1260;66695;-69
2023/07/17 10:07:51;;;;;;;6.50;2.10;;;;;;;34.34;20.14;99642.02;108753;1260;72745;-73
2023/07/17 10:10:41;;;;;;;7.40;2.00;;;;;;;34.09;20.15;99636.93;108635;1265;57438;-73
2023/07/17 10:13:30;;;;;;;7.10;2.20;;;;;;;34.14;20.87;99630.20;108536;1264;60423;-70
2023/07/17 10:16:19;;;;;;;10.30;2.40;;;;;;;34.28;21.42;99633.82;108488;1264;73355;-71
2023/07/17 10:19:08;;;;;;;7.90;2.00;;;;;;;34.94;20.27;99631.67;108580;1264;67625;-72
2023/07/17 10:21:58;;;;;;;7.40;2.10;;;;;;;34.99;19.29;99627.53;108459;1265;71756;-71
2023/07/17 10:24:48;;;;;;;7.00;2.50;;;;;;;35.06;18.88;99627.23;108455;1265;59000;-69
2023/07/17 10:27:43;;;;;;;8.20;2.20;;;;;;;35.29;18.88;99639.66;108505;1265;61702;-72
2023/07/17 10:30:37;;;;;;;6.30;2.20;;;;;;;35.96;19.88;99641.23;108533;1265;73204;-72
2023/07/17 10:33:35;;;;;;;8.00;3.60;;;;;;;35.50;21.07;99640.27;108322;1265;67801;-71
2023/07/17 10:36:42;;;;;;;9.20;2.40;;;;;;;34.60;22.38;99637.27;108356;1265;72794;-72
2023/07/17 10:39:30;;;;;;;7.20;2.30;;;;;;;33.57;22.96;99642.69;108534;1265;57375;-73
2023/07/17 10:42:20;;;;;;;8.50;2.20;;;;;;;32.83;24.19;99640.95;108757;1261;60356;-70
2023/07/17 10:45:10;;;;;;;6.50;2.10;;;;;;;32.21;24.47;99635.69;108791;1262;73081;-71
2023/07/17 10:48:00;;;;;;;8.10;2.50;;;;;;;31.54;25.42;99638.90;108803;1262;66782;-71
2023/07/17 10:50:54;;;;;;;9.80;2.30;;;;;;;31.06;26.45;99641.71;108720;1262;72826;-69
2023/07/17 10:53:47;;;;;;;6.40;2.00;;;;;;;30.52;26.97;99645.04;108762;1262;59070;-73
2023/07/17 10:56:47;;;;;;;7.70;2.30;;;;;;;29.91;27.53;99645.90;108711;1262;60322;-70
2023/07/17 10:59:37;;;;;;;7.20;2.40;;;;;;;29.35;28.97;99655.56;108680;1264;74527;-73
2023/07/17 11:02:26;;;;;;;7.10;2.40;;;;;;;29.05;31.49;99666.02;108664;1264;66654;-74
2023/07/17 11:05:15;;;;;;;8.80;2.40;;;;;;;28.91;33.45;99663.58;108697;1263;72757;-70
2023/07/17 11:08:07;;;;;;;7.60;2.60;;;;;;;29.83;33.44;99665.76;108701;1263;57366;-70
2023/07/17 11:10:56;;;;;;;6.90;2.50;;;;;;;30.97;32.50;99662.95;108704;1263;60225;-72
2023/07/17 11:13:51;;;;;;;8.20;2.40;;;;;;;30.89;32.51;99657.13;108685;1264;76413;-73
2023/07/17 11:16:40;;;;;;;7.90;2.70;;;;;;;30.46;33.77;99660.86;108738;1264;68222;-69
2023/07/17 11:19:32;;;;;;;8.50;2.40;;;;;;;30.81;33.49;99657.29;108799;1263;72728;-76
2023/07/17 11:22:29;;;;;;;6.10;2.20;;;;;;;31.37;32.87;99660.85;108622;1264;57355;-74
2023/07/17 11:25:23;;;;;;;7.10;2.40;;;;;;;31.59;32.39;99665.16;108473;1264;60080;-74
2023/07/17 11:28:13;;;;;;;6.70;2.00;;;;;;;31.87;31.74;99648.44;108678;1264;71792;-73
2023/07/17 11:31:02;;;;;;;7.50;2.40;;;;;;;32.03;31.08;99650.77;108722;1264;67993;-76
2023/07/17 11:34:05;;;;;;;7.30;2.20;;;;;;;32.05;30.56;99652.88;108624;1263;72727;-73
2023/07/17 11:36:54;;;;;;;8.00;2.30;;;;;;;31.33;31.29;99646.22;108667;1264;57540;-75
2023/07/17 11:39:41;;;;;;;7.60;2.50;;;;;;;30.68;32.43;99646.92;108764;1265;60111;-72
2023/07/17 11:42:50;;;;;;;9.00;3.10;;;;;;;30.13;33.15;99647.19;108731;1264;73432;-76
2023/07/17 11:45:40;;;;;;;14.10;4.20;;;;;;;29.54;35.58;99649.72;108410;1267;66709;-72
2023/07/17 11:48:41;;;;;;;8.00;3.50;;;;;;;28.85;37.20;99662.77;108372;1267;71181;-71
2023/07/17 11:51:28;;;;;;;9.40;4.40;;;;;;;28.20;38.91;99658.65;108345;1266;57270;-71
2023/07/17 11:54:16;;;;;;;11.90;3.30;;;;;;;27.71;40.73;99657.71;108490;1266;59083;-72
2023/07/17 11:57:05;;;;;;;7.60;2.50;;;;;;;27.31;42.36;99670.58;108518;1267;73528;-72
2023/07/17 12:00:04;;;;;;;12.80;6.80;;;;;;;26.97;43.52;99666.25;108270;1266;68541;-70
2023/07/17 12:03:00;;;;;;;8.20;3.40;;;;;;;26.64;44.58;99666.73;108296;1267;72621;-70
2023/07/17 12:05:48;;;;;;;9.30;3.80;;;;;;;26.47;45.55;99673.46;108407;1266;57300;-71
2023/07/17 12:08:37;;;;;;;8.00;3.10;;;;;;;26.36;46.60;99670.52;108399;1267;60089;-73
2023/07/17 12:11:26;;;;;;;8.70;3.30;;;;;;;26.29;47.80;99667.39;108476;1267;73393;-71
2023/07/17 12:14:15;;;;;;;10.50;6.00;;;;;;;26.27;48.10;99667.11;108352;1267;67676;-70
2023/07/17 12:17:04;;;;;;;8.10;3.10;;;;;;;26.19;48.05;99674.00;108530;1264;71507;-72
2023/07/17 12:19:51;;;;;;;12.50;5.30;;;;;;;25.99;48.77;99675.26;108637;1263;57286;-72
2023/07/17 12:22:41;;;;;;;7.60;3.10;;;;;;;25.75;49.89;99677.83;108767;1264;59578;-74
2023/07/17 12:25:30;;;;;;;9.50;3.20;;;;;;;25.46;51.54;99683.90;108744;1264;73147;-71
2023/07/17 12:28:19;;;;;;;8.20;3.10;;;;;;;25.18;53.09;99685.80;106961;1264;2181675;-70
2023/07/17 12:31:09;;;;;;;8.70;2.90;;;;;;;24.90;54.50;99676.04;108672;1264;73764;-74
2023/07/17 12:33:57;;;;;;;12.00;4.60;;;;;;;24.62;55.38;99675.55;108722;1263;57676;-72
2023/07/17 12:36:46;;;;;;;7.70;3.10;;;;;;;24.42;54.49;99680.87;108694;1264;59144;-75
2023/07/17 12:39:35;;;;;;;7.40;2.90;;;;;;;24.23;53.46;99687.14;108797;1264;72841;-75
2023/07/17 12:42:25;;;;;;;7.70;2.80;;;;;;;24.12;50.84;99685.11;108728;1264;66589;-73
2023/07/17 12:45:14;;;;;;;7.60;2.80;;;;;;;24.03;48.46;99687.49;108618;1264;72613;-73
2023/07/17 12:48:06;;;;;;;10.10;2.60;;;;;;;23.97;44.19;99689.23;108713;1263;57704;-71
2023/07/17 12:50:55;;;;;;;7.50;2.20;;;;;;;23.96;43.66;99689.11;108724;1265;57780;-74
2023/07/17 12:53:45;;;;;;;6.90;2.40;;;;;;;24.04;44.11;99686.73;108731;1264;73798;-73
2023/07/17 12:56:36;;;;;;;7.80;2.50;;;;;;;24.21;44.09;99692.99;108816;1264;67904;-72
2023/07/17 12:59:24;;;;;;;10.00;2.50;;;;;;;24.45;43.83;99694.40;108753;1262;74069;-72
2023/07/17 13:02:13;;;;;;;7.40;2.40;;;;;;;24.77;43.71;99690.60;108773;1262;57398;-73
2023/07/17 13:05:02;;;;;;;8.40;2.70;;;;;;;25.02;43.61;99695.70;108827;1262;59701;-74
2023/07/17 13:07:51;;;;;;;8.60;2.60;;;;;;;25.23;42.91;99687.71;108812;1262;71443;-72
2023/07/17 13:10:39;;;;;;;6.50;2.20;;;;;;;25.45;42.38;99687.21;108833;1262;67938;-74
2023/07/17 13:13:27;;;;;;;8.10;2.60;;;;;;;25.51;41.28;99695.06;108823;1261;72632;-74